Time;durP1;ratioP1;P1;durP2;ratioP2;P2;SDS_P1;SDS_P2;PMS_P1;PMS_P2;Temp;Humidity;BMP_temperature;BMP_pressure;BME280_temperature;BME280_humidity;BME280_pressure;Samples;Min_cycle;Max_cycle;Signal;HPM_P1;HPM_P2
2023/04/28 00:01:21;;;;;;;16.27;14.35;;;7.00;99.90;;;;;;5073217;28;20032;-74
2023/04/28 00:03:47;;;;;;;20.38;15.50;;;7.00;99.90;;;;;;5054266;28;20098;-74
2023/04/28 00:06:13;;;;;;;16.55;14.85;;;7.00;99.90;;;;;;5049720;28;21110;-74
2023/04/28 00:08:39;;;;;;;15.13;13.60;;;7.00;99.90;;;;;;5055563;28;20586;-74
2023/04/28 00:11:11;;;;;;;15.57;13.98;;;7.10;99.90;;;;;;5038639;28;20043;-74
2023/04/28 00:13:37;;;;;;;17.48;14.20;;;7.00;99.90;;;;;;5076270;28;20044;-74
2023/04/28 00:16:03;;;;;;;17.50;13.90;;;7.00;99.90;;;;;;5048956;28;20051;-74
2023/04/28 00:18:29;;;;;;;16.08;14.13;;;7.00;99.90;;;;;;5077369;28;20036;-74
2023/04/28 00:20:55;;;;;;;15.00;13.57;;;7.00;99.90;;;;;;5056022;28;20078;-74
2023/04/28 00:23:21;;;;;;;15.05;13.50;;;6.90;99.90;;;;;;5067386;28;20056;-74
2023/04/28 00:25:54;;;;;;;16.75;13.27;;;6.90;99.90;;;;;;5053969;28;20114;-74
2023/04/28 00:28:20;;;;;;;14.73;13.23;;;7.00;99.90;;;;;;5048411;28;20062;-74
2023/04/28 00:30:46;;;;;;;14.55;13.05;;;6.90;99.90;;;;;;5073254;28;20048;-74
2023/04/28 00:33:12;;;;;;;14.73;13.13;;;6.90;99.90;;;;;;5069123;28;20036;-74
2023/04/28 00:35:40;;;;;;;13.98;12.57;;;7.00;99.90;;;;;;5066555;28;20094;-75
2023/04/28 00:38:06;;;;;;;19.67;13.57;;;7.00;99.90;;;;;;5065454;28;20482;-74
2023/04/28 00:40:41;;;;;;;15.27;12.77;;;6.90;99.90;;;;;;5054052;28;20051;-74
2023/04/28 00:43:07;;;;;;;15.45;13.57;;;6.90;99.90;;;;;;5043175;28;20141;-74
2023/04/28 00:45:33;;;;;;;15.60;12.95;;;6.90;99.90;;;;;;5065895;28;20106;-74
2023/04/28 00:47:59;;;;;;;15.35;13.60;;;6.90;99.90;;;;;;5067881;28;20052;-74
2023/04/28 00:50:25;;;;;;;15.00;13.32;;;6.90;99.90;;;;;;5066466;28;20040;-74
2023/04/28 00:52:52;;;;;;;14.55;13.05;;;6.90;99.90;;;;;;5039510;28;20093;-74
2023/04/28 00:55:20;;;;;;;16.75;14.07;;;6.90;99.90;;;;;;5063340;28;20041;-75
2023/04/28 00:57:47;;;;;;;15.75;14.13;;;6.90;99.90;;;;;;5070878;28;20048;-75
2023/04/28 01:00:15;;;;;;;15.05;13.45;;;6.90;99.90;;;;;;5051324;28;20131;-74
2023/04/28 01:02:40;;;;;;;14.02;12.55;;;6.90;99.90;;;;;;5050579;28;20465;-74
2023/04/28 01:05:08;;;;;;;15.35;13.75;;;7.00;99.90;;;;;;5052982;28;20028;-74
2023/04/28 01:07:36;;;;;;;15.68;14.02;;;6.90;99.90;;;;;;5073098;28;20127;-73
2023/04/28 01:10:02;;;;;;;16.83;14.23;;;6.90;99.90;;;;;;5037897;28;20044;-75
2023/04/28 01:12:28;;;;;;;15.77;13.98;;;6.90;99.90;;;;;;5065005;28;20044;-74
2023/04/28 01:14:54;;;;;;;16.67;14.38;;;6.90;99.90;;;;;;5037848;28;20047;-74
2023/04/28 01:17:20;;;;;;;16.20;13.43;;;6.90;99.90;;;;;;5068730;28;20043;-74
2023/04/28 01:19:46;;;;;;;18.30;13.57;;;6.90;99.90;;;;;;5033100;28;20052;-74
2023/04/28 01:22:15;;;;;;;14.50;12.95;;;6.90;99.90;;;;;;5062994;28;20048;-74
2023/04/28 01:24:41;;;;;;;15.70;13.60;;;6.90;99.90;;;;;;5057627;28;20498;-74
2023/04/28 01:27:07;;;;;;;15.50;13.88;;;6.80;99.90;;;;;;5077270;28;20052;-75
2023/04/28 01:29:33;;;;;;;15.75;13.93;;;6.80;99.90;;;;;;5069828;28;20055;-74
2023/04/28 01:31:58;;;;;;;15.00;13.40;;;6.80;99.90;;;;;;5072856;28;20072;-74
2023/04/28 01:34:25;;;;;;;17.92;14.02;;;6.90;99.90;;;;;;5069232;28;20820;-74
2023/04/28 01:36:51;;;;;;;16.58;14.98;;;6.90;99.90;;;;;;5050041;28;20518;-74
2023/04/28 01:39:16;;;;;;;16.70;14.95;;;6.90;99.90;;;;;;5038879;28;20079;-74
2023/04/28 01:41:42;;;;;;;16.85;15.05;;;6.90;99.90;;;;;;5055353;28;20040;-74
2023/04/28 01:44:08;;;;;;;17.75;14.82;;;6.90;99.90;;;;;;5072343;28;20555;-74
2023/04/28 01:46:34;;;;;;;18.02;15.00;;;6.90;99.90;;;;;;5071274;28;20072;-74
2023/04/28 01:49:00;;;;;;;17.90;14.63;;;6.90;99.90;;;;;;5041288;28;20530;-74
2023/04/28 01:51:26;;;;;;;18.27;15.23;;;6.90;99.90;;;;;;5057038;28;20035;-74
2023/04/28 01:53:51;;;;;;;16.27;14.57;;;7.00;99.90;;;;;;5071880;28;20089;-76
2023/04/28 01:56:17;;;;;;;17.17;15.38;;;6.80;99.90;;;;;;5072618;28;20052;-75
2023/04/28 01:58:43;;;;;;;17.38;15.50;;;6.90;99.90;;;;;;5054469;28;20048;-75
2023/04/28 02:01:09;;;;;;;17.10;15.02;;;6.90;99.90;;;;;;5026448;28;20044;-75
2023/04/28 02:03:35;;;;;;;18.15;15.65;;;6.90;99.90;;;;;;5033383;28;20457;-75
2023/04/28 02:06:01;;;;;;;16.73;14.93;;;6.90;99.90;;;;;;5042593;28;20067;-75
2023/04/28 02:08:27;;;;;;;17.67;15.70;;;6.80;99.90;;;;;;5073980;28;20126;-75
2023/04/28 02:10:53;;;;;;;17.27;15.43;;;6.80;99.90;;;;;;5071154;28;20158;-74
2023/04/28 02:13:22;;;;;;;20.17;16.98;;;6.90;99.90;;;;;;5042418;28;20060;-74
2023/04/28 02:15:48;;;;;;;18.90;16.38;;;6.80;99.90;;;;;;5051163;28;20244;-74
2023/04/28 02:18:14;;;;;;;20.15;17.02;;;6.80;99.90;;;;;;5057268;28;20067;-73
2023/04/28 02:20:40;;;;;;;19.52;16.75;;;6.80;99.90;;;;;;5049522;28;20044;-74
2023/04/28 02:23:06;;;;;;;19.23;16.15;;;6.80;99.90;;;;;;5053768;28;20059;-74
2023/04/28 02:25:32;;;;;;;18.77;16.77;;;6.80;99.90;;;;;;5072347;28;20134;-75
2023/04/28 02:27:58;;;;;;;18.17;16.25;;;6.80;99.90;;;;;;5052166;28;20047;-74
2023/04/28 02:30:24;;;;;;;19.23;17.23;;;6.70;99.90;;;;;;5044565;28;20158;-74
2023/04/28 02:32:50;;;;;;;20.23;16.70;;;6.80;99.90;;;;;;5044086;28;20269;-75
2023/04/28 02:35:16;;;;;;;19.00;16.67;;;6.80;99.90;;;;;;5043605;28;20416;-74
2023/04/28 02:37:41;;;;;;;19.33;16.63;;;6.80;99.90;;;;;;5039804;28;20040;-74
2023/04/28 02:40:07;;;;;;;19.38;16.88;;;6.80;99.90;;;;;;5050682;28;20048;-75
2023/04/28 02:42:34;;;;;;;19.00;16.35;;;6.70;99.90;;;;;;5068533;28;20044;-75
2023/04/28 02:45:00;;;;;;;28.55;16.92;;;6.70;99.90;;;;;;5068881;28;20086;-75
2023/04/28 02:47:28;;;;;;;17.98;16.15;;;6.60;99.90;;;;;;5053491;28;20469;-75
2023/04/28 02:49:54;;;;;;;18.95;16.95;;;6.60;99.90;;;;;;5050780;28;20056;-75
2023/04/28 02:52:20;;;;;;;17.70;15.82;;;6.70;99.90;;;;;;5039742;28;20044;-75
2023/04/28 02:54:47;;;;;;;18.38;16.48;;;6.60;99.90;;;;;;5060917;28;20503;-75
2023/04/28 02:57:13;;;;;;;19.17;16.42;;;6.60;99.90;;;;;;5063309;28;20128;-74
2023/04/28 02:59:39;;;;;;;19.63;16.67;;;6.60;99.90;;;;;;5070764;28;20123;-75
2023/04/28 03:02:05;;;;;;;18.63;16.67;;;6.60;99.90;;;;;;5037788;28;20061;-75
2023/04/28 03:04:31;;;;;;;18.90;16.88;;;6.60;99.90;;;;;;5041544;28;20518;-75
2023/04/28 03:06:56;;;;;;;20.50;16.75;;;6.60;99.90;;;;;;5063909;28;20066;-75
2023/04/28 03:09:22;;;;;;;19.10;17.02;;;6.60;99.90;;;;;;5039247;28;20485;-76
2023/04/28 03:11:48;;;;;;;19.10;17.02;;;6.60;99.90;;;;;;5063413;28;20049;-75
2023/04/28 03:14:14;;;;;;;20.08;17.25;;;6.60;99.90;;;;;;5058977;28;20558;-75
2023/04/28 03:16:40;;;;;;;20.65;17.30;;;6.60;99.90;;;;;;5041759;28;20046;-75
2023/04/28 03:19:05;;;;;;;20.20;18.15;;;6.60;99.90;;;;;;5073700;28;20137;-75
2023/04/28 03:21:31;;;;;;;19.52;17.52;;;6.70;99.90;;;;;;5043403;28;20052;-75
2023/04/28 03:23:57;;;;;;;22.20;18.75;;;6.60;99.90;;;;;;5042492;28;20514;-75
2023/04/28 03:26:26;;;;;;;21.13;18.88;;;6.60;99.90;;;;;;5065663;28;20036;-76
2023/04/28 03:28:51;;;;;;;21.23;18.10;;;6.60;99.90;;;;;;5068432;28;20100;-75
2023/04/28 03:31:17;;;;;;;20.35;18.20;;;6.60;99.90;;;;;;5036747;28;20048;-75
2023/04/28 03:33:45;;;;;;;22.77;19.02;;;6.60;99.90;;;;;;5068766;28;20385;-75
2023/04/28 03:36:11;;;;;;;21.40;18.67;;;6.60;99.90;;;;;;5071300;28;20048;-75
2023/04/28 03:38:37;;;;;;;20.70;18.42;;;6.60;99.90;;;;;;5058331;28;20047;-75
2023/04/28 03:41:03;;;;;;;26.23;20.73;;;6.50;99.90;;;;;;5077155;28;20051;-75
2023/04/28 03:43:29;;;;;;;22.52;19.48;;;6.60;99.90;;;;;;5055967;28;20051;-75
2023/04/28 03:45:55;;;;;;;22.25;19.83;;;6.50;99.90;;;;;;5058326;28;20419;-75
2023/04/28 03:48:20;;;;;;;22.20;19.45;;;6.50;99.90;;;;;;5050601;28;21658;-75
2023/04/28 03:50:46;;;;;;;22.15;19.75;;;6.50;99.90;;;;;;5056858;28;20314;-75
2023/04/28 03:53:12;;;;;;;21.83;19.00;;;6.50;99.90;;;;;;5039723;28;20064;-74
2023/04/28 03:55:38;;;;;;;21.20;18.90;;;6.50;99.90;;;;;;5044973;28;20122;-75
2023/04/28 03:58:03;;;;;;;22.20;19.40;;;6.50;99.90;;;;;;5071945;28;20048;-76
2023/04/28 04:00:29;;;;;;;23.65;20.10;;;6.50;99.90;;;;;;5048040;28;20072;-76
2023/04/28 04:02:55;;;;;;;22.23;19.88;;;6.50;99.90;;;;;;5071782;28;20047;-76
2023/04/28 04:05:21;;;;;;;23.30;20.23;;;6.40;99.90;;;;;;5055530;28;20064;-75
2023/04/28 04:07:47;;;;;;;22.60;19.88;;;6.50;99.90;;;;;;5050993;28;20119;-75
2023/04/28 04:10:12;;;;;;;22.08;19.52;;;6.50;99.90;;;;;;5083171;28;20040;-75
2023/04/28 04:12:38;;;;;;;23.70;21.05;;;6.40;99.90;;;;;;5036186;28;20063;-75
2023/04/28 04:15:04;;;;;;;22.33;20.02;;;6.40;99.90;;;;;;5047522;28;20135;-75
2023/04/28 04:17:30;;;;;;;22.60;20.10;;;6.50;99.90;;;;;;5055493;28;20037;-76
2023/04/28 04:19:56;;;;;;;23.90;20.75;;;6.50;99.90;;;;;;5064763;28;20105;-75
2023/04/28 04:22:22;;;;;;;22.58;20.17;;;6.50;99.90;;;;;;5066088;28;20091;-76
2023/04/28 04:24:48;;;;;;;22.63;20.23;;;6.40;99.90;;;;;;5063935;28;20040;-75
2023/04/28 04:27:13;;;;;;;24.95;20.60;;;6.50;99.90;;;;;;5067960;28;20131;-75
2023/04/28 04:29:39;;;;;;;21.98;19.58;;;6.50;99.90;;;;;;5040298;28;20126;-75
2023/04/28 04:32:05;;;;;;;22.73;20.33;;;6.50;99.90;;;;;;5068714;28;20415;-75
2023/04/28 04:34:31;;;;;;;24.30;20.27;;;6.60;99.90;;;;;;5050146;28;20456;-75
2023/04/28 04:36:57;;;;;;;23.52;19.52;;;6.50;99.90;;;;;;5055170;28;20530;-75
2023/04/28 04:39:22;;;;;;;25.90;20.73;;;6.50;99.90;;;;;;5061233;28;20048;-75
2023/04/28 04:41:48;;;;;;;25.05;21.02;;;6.50;99.90;;;;;;5040767;28;20098;-75
2023/04/28 04:44:14;;;;;;;24.38;20.55;;;6.50;99.90;;;;;;5065912;28;20525;-75
2023/04/28 04:46:40;;;;;;;23.70;21.13;;;6.60;99.90;;;;;;5062453;28;20043;-75
2023/04/28 04:49:06;;;;;;;24.95;21.58;;;6.60;99.90;;;;;;5078587;28;20048;-75
2023/04/28 04:51:32;;;;;;;23.77;20.95;;;6.50;99.90;;;;;;5059677;28;20055;-76
2023/04/28 04:53:58;;;;;;;26.50;21.45;;;6.60;99.90;;;;;;5062465;28;20461;-76
2023/04/28 04:56:27;;;;;;;24.77;21.15;;;6.50;99.90;;;;;;5048674;28;20623;-75
2023/04/28 04:58:52;;;;;;;23.02;20.20;;;6.60;99.90;;;;;;5082336;28;20052;-75
2023/04/28 05:01:18;;;;;;;24.45;20.95;;;6.60;99.90;;;;;;5054551;28;20037;-74
2023/04/28 05:03:44;;;;;;;26.98;21.63;;;6.50;99.90;;;;;;5079646;28;20054;-75
2023/04/28 05:06:10;;;;;;;23.58;20.95;;;6.50;99.90;;;;;;5041063;28;20060;-75
2023/04/28 05:08:36;;;;;;;22.55;19.85;;;6.60;99.90;;;;;;5074956;28;20119;-75
2023/04/28 05:11:01;;;;;;;23.42;20.92;;;6.60;99.90;;;;;;5062324;28;20135;-75
2023/04/28 05:13:27;;;;;;;23.55;19.90;;;6.60;99.90;;;;;;5061009;28;20134;-76
2023/04/28 05:15:56;;;;;;;24.92;20.83;;;6.60;99.90;;;;;;5034498;28;20051;-76
2023/04/28 05:18:21;;;;;;;22.88;20.48;;;6.60;99.90;;;;;;5068872;28;20081;-76
2023/04/28 05:20:47;;;;;;;21.58;19.13;;;6.70;99.90;;;;;;5064799;28;20403;-74
2023/04/28 05:23:13;;;;;;;21.88;18.33;;;6.70;99.90;;;;;;5076882;28;20051;-74
2023/04/28 05:25:39;;;;;;;22.25;18.52;;;6.70;99.90;;;;;;5064282;28;20623;-75
2023/04/28 05:28:07;;;;;;;21.75;19.08;;;6.80;99.90;;;;;;5043905;28;20086;-75
2023/04/28 05:30:33;;;;;;;21.85;18.67;;;6.80;99.90;;;;;;5060400;28;20052;-75
2023/04/28 05:32:59;;;;;;;21.58;19.20;;;6.90;99.90;;;;;;5062535;28;20735;-75
2023/04/28 05:35:25;;;;;;;21.83;18.25;;;6.90;99.90;;;;;;5084920;28;20044;-75
2023/04/28 05:37:51;;;;;;;22.35;19.85;;;6.90;99.90;;;;;;5077215;28;20044;-75
2023/04/28 05:40:17;;;;;;;22.27;19.23;;;6.90;99.90;;;;;;5072718;28;20044;-76
2023/04/28 05:42:43;;;;;;;23.27;19.90;;;6.90;99.90;;;;;;5066667;28;20105;-75
2023/04/28 05:45:10;;;;;;;20.17;18.15;;;7.00;99.90;;;;;;5044616;28;20035;-75
2023/04/28 05:47:36;;;;;;;20.20;18.10;;;7.00;99.90;;;;;;5075806;28;20486;-75
2023/04/28 05:50:02;;;;;;;23.30;20.08;;;7.00;99.90;;;;;;5051031;28;20052;-75
2023/04/28 05:52:27;;;;;;;21.90;19.10;;;7.00;99.90;;;;;;5042273;28;20051;-75
2023/04/28 05:54:56;;;;;;;21.10;18.42;;;7.00;99.90;;;;;;5059868;28;20461;-75
2023/04/28 05:57:22;;;;;;;20.80;18.60;;;7.00;99.90;;;;;;5037596;28;20044;-75
2023/04/28 05:59:47;;;;;;;20.30;17.90;;;7.00;99.90;;;;;;5036914;28;20125;-75
2023/04/28 06:02:13;;;;;;;20.98;17.60;;;7.10;99.90;;;;;;5052977;28;20044;-75
2023/04/28 06:04:39;;;;;;;20.23;18.05;;;7.10;99.90;;;;;;5058544;28;20110;-75
2023/04/28 06:07:05;;;;;;;21.17;18.75;;;7.10;99.90;;;;;;5062675;28;20048;-75
2023/04/28 06:09:31;;;;;;;21.10;18.90;;;7.10;99.90;;;;;;5056581;28;20531;-75
2023/04/28 06:11:56;;;;;;;20.25;18.15;;;7.20;99.90;;;;;;5069048;28;20110;-74
2023/04/28 06:14:22;;;;;;;21.63;18.35;;;7.20;99.90;;;;;;5065909;28;20106;-75
2023/04/28 06:16:51;;;;;;;21.60;17.70;;;7.20;99.90;;;;;;5058478;28;20055;-75
2023/04/28 06:19:20;;;;;;;20.33;18.15;;;7.20;99.90;;;;;;5061970;28;20040;-75
2023/04/28 06:21:45;;;;;;;20.60;18.13;;;7.10;99.90;;;;;;5061546;28;20513;-75
2023/04/28 06:24:11;;;;;;;21.13;18.70;;;7.10;99.90;;;;;;5067965;28;20049;-75
2023/04/28 06:26:37;;;;;;;19.67;17.25;;;7.20;99.90;;;;;;5055358;28;20040;-74
2023/04/28 06:29:06;;;;;;;21.05;18.83;;;7.20;99.90;;;;;;5074740;28;20067;-74
2023/04/28 06:31:32;;;;;;;20.60;18.25;;;7.30;99.90;;;;;;5058577;28;20127;-74
2023/04/28 06:33:57;;;;;;;20.85;18.48;;;7.30;99.90;;;;;;5053493;28;20951;-75
2023/04/28 06:36:27;;;;;;;20.23;17.27;;;7.20;99.90;;;;;;5057543;28;20499;-75
2023/04/28 06:38:53;;;;;;;19.90;17.35;;;7.30;99.90;;;;;;5027330;28;20598;-75
2023/04/28 06:41:18;;;;;;;19.80;17.70;;;7.30;99.90;;;;;;5048285;28;20040;-74
2023/04/28 06:43:47;;;;;;;19.63;16.90;;;7.30;99.90;;;;;;5036201;28;20101;-75
2023/04/28 06:46:16;;;;;;;20.27;18.02;;;7.30;99.90;;;;;;5073062;28;20044;-75
2023/04/28 06:48:42;;;;;;;19.60;17.23;;;7.40;99.90;;;;;;5060016;28;20035;-75
2023/04/28 06:51:07;;;;;;;21.73;17.95;;;7.40;99.90;;;;;;5052736;28;20052;-75
2023/04/28 06:53:33;;;;;;;19.13;16.92;;;7.40;99.90;;;;;;5073567;28;20039;-74
2023/04/28 06:55:59;;;;;;;19.52;17.52;;;7.40;99.90;;;;;;5057617;28;20083;-75
2023/04/28 06:58:25;;;;;;;19.58;17.48;;;7.50;99.90;;;;;;5034628;28;20076;-74
2023/04/28 07:00:50;;;;;;;18.90;16.98;;;7.50;99.90;;;;;;5046538;28;20102;-75
2023/04/28 07:03:16;;;;;;;19.77;17.10;;;7.50;99.90;;;;;;5039676;28;20407;-74
2023/04/28 07:05:42;;;;;;;18.52;16.60;;;7.60;99.90;;;;;;5039897;28;20262;-75
2023/04/28 07:08:08;;;;;;;18.80;16.90;;;7.70;99.90;;;;;;5065472;28;20776;-75
2023/04/28 07:10:33;;;;;;;17.67;15.88;;;7.80;99.90;;;;;;5061776;28;20029;-75
2023/04/28 07:12:59;;;;;;;17.95;16.08;;;7.80;99.90;;;;;;5066234;28;20554;-75
2023/04/28 07:15:25;;;;;;;17.45;15.50;;;7.90;99.90;;;;;;5027387;28;20090;-75
2023/04/28 07:17:51;;;;;;;17.50;14.50;;;8.00;99.90;;;;;;5059453;28;20052;-75
2023/04/28 07:20:17;;;;;;;17.08;15.20;;;8.00;99.90;;;;;;5071966;28;20066;-75
2023/04/28 07:22:43;;;;;;;17.23;15.18;;;8.00;99.90;;;;;;5041624;28;20067;-75
2023/04/28 07:25:10;;;;;;;18.35;14.75;;;8.10;99.90;;;;;;5049410;28;20106;-75
2023/04/28 07:27:36;;;;;;;16.05;14.35;;;8.10;99.90;;;;;;5075644;28;20079;-74
2023/04/28 07:30:02;;;;;;;19.02;15.52;;;8.20;99.90;;;;;;5068253;28;20072;-74
2023/04/28 07:32:27;;;;;;;18.95;14.55;;;8.20;99.90;;;;;;5051994;28;20040;-75
2023/04/28 07:34:54;;;;;;;16.27;14.25;;;8.30;99.90;;;;;;5055234;28;20052;-74
2023/04/28 07:37:19;;;;;;;17.23;15.38;;;8.30;99.90;;;;;;5056405;28;20033;-74
2023/04/28 07:39:46;;;;;;;15.63;14.02;;;8.40;99.90;;;;;;5063583;28;20036;-75
2023/04/28 07:42:12;;;;;;;15.98;14.25;;;8.40;99.90;;;;;;5051332;28;20036;-74
2023/04/28 07:44:37;;;;;;;18.35;14.40;;;8.40;99.90;;;;;;5080602;28;20047;-75
2023/04/28 07:47:03;;;;;;;18.95;14.10;;;8.50;99.90;;;;;;5050647;28;20049;-75
2023/04/28 07:49:32;;;;;;;15.35;13.05;;;8.60;99.90;;;;;;5039971;28;20123;-74
2023/04/28 07:51:58;;;;;;;16.95;14.40;;;8.60;99.90;;;;;;5047181;28;20230;-74
2023/04/28 07:54:27;;;;;;;15.38;13.65;;;8.70;99.90;;;;;;5072292;28;20127;-75
2023/04/28 07:56:52;;;;;;;16.02;13.15;;;8.80;99.90;;;;;;5057846;28;20102;-75
2023/04/28 07:59:18;;;;;;;15.02;13.52;;;8.90;99.90;;;;;;5057828;28;20503;-74
2023/04/28 08:01:44;;;;;;;14.85;12.90;;;9.00;99.90;;;;;;5030975;28;20093;-74
2023/04/28 08:04:10;;;;;;;18.10;14.23;;;9.10;99.90;;;;;;5051999;28;20082;-75
2023/04/28 08:06:37;;;;;;;14.07;12.57;;;9.10;99.90;;;;;;5057273;28;20082;-74
2023/04/28 08:09:04;;;;;;;15.18;13.10;;;9.30;99.90;;;;;;5069219;28;20040;-73
2023/04/28 08:11:30;;;;;;;15.38;12.48;;;9.30;99.90;;;;;;5028184;28;20048;-74
2023/04/28 08:14:00;;;;;;;14.20;12.57;;;9.40;99.90;;;;;;5075865;28;20117;-74
2023/04/28 08:16:26;;;;;;;13.80;11.77;;;9.50;99.90;;;;;;5059678;28;20119;-74
2023/04/28 08:18:52;;;;;;;14.32;12.05;;;9.50;99.90;;;;;;5052479;28;20113;-74
2023/04/28 08:21:18;;;;;;;14.50;12.23;;;9.50;99.90;;;;;;5070060;28;20033;-74
2023/04/28 08:23:43;;;;;;;14.95;12.00;;;9.60;99.90;;;;;;5071248;28;20049;-74
2023/04/28 08:26:09;;;;;;;13.73;12.32;;;9.70;99.90;;;;;;5052146;28;20477;-74
2023/04/28 08:28:35;;;;;;;15.00;12.60;;;9.70;99.90;;;;;;5054505;28;20113;-73
2023/04/28 08:31:01;;;;;;;14.73;13.25;;;9.70;99.90;;;;;;5073660;28;20054;-74
2023/04/28 08:33:27;;;;;;;14.07;12.68;;;9.70;99.90;;;;;;5072879;28;20558;-74
2023/04/28 08:35:54;;;;;;;13.77;12.07;;;9.70;99.90;;;;;;5051622;28;20056;-74
2023/04/28 08:38:22;;;;;;;15.15;13.55;;;9.70;99.90;;;;;;5053065;28;20032;-74
2023/04/28 08:40:48;;;;;;;14.57;12.55;;;9.70;99.90;;;;;;5065179;28;20068;-74
2023/04/28 08:43:14;;;;;;;14.13;12.63;;;9.70;99.90;;;;;;5065903;28;20124;-74
2023/04/28 08:45:41;;;;;;;16.63;14.27;;;9.60;99.90;;;;;;5051745;28;20127;-73
2023/04/28 08:48:21;;;;;;;13.75;12.30;;;9.70;99.90;;;;;;5052215;28;20048;-73
2023/04/28 08:50:56;;;;;;;14.47;12.70;;;9.70;99.90;;;;;;5081409;28;20067;-72
2023/04/28 08:53:24;;;;;;;15.32;13.75;;;9.70;99.90;;;;;;5070653;28;20499;-75
2023/04/28 08:55:57;;;;;;;16.23;14.52;;;9.80;99.90;;;;;;5072429;28;20491;-74
2023/04/28 08:58:24;;;;;;;15.90;14.30;;;9.80;99.90;;;;;;5070581;28;20037;-74
2023/04/28 09:00:51;;;;;;;15.25;13.60;;;9.80;99.90;;;;;;5052698;28;20403;-75
2023/04/28 09:03:17;;;;;;;16.95;15.15;;;9.80;99.90;;;;;;5051991;28;20148;-74
2023/04/28 09:05:43;;;;;;;16.77;14.40;;;9.90;99.90;;;;;;5059801;28;20128;-74
2023/04/28 09:08:11;;;;;;;15.50;14.00;;;9.90;99.90;;;;;;5056040;28;20138;-75
2023/04/28 09:10:37;;;;;;;18.58;15.18;;;10.00;99.90;;;;;;5071202;28;20043;-74
2023/04/28 09:13:03;;;;;;;16.02;14.30;;;10.00;99.90;;;;;;5055212;28;20041;-75
2023/04/28 09:15:31;;;;;;;17.60;15.27;;;10.00;99.90;;;;;;5052855;28;20033;-75
2023/04/28 09:17:57;;;;;;;16.08;14.00;;;10.00;99.90;;;;;;5072003;28;20063;-75
2023/04/28 09:20:28;;;;;;;16.77;14.98;;;10.10;99.90;;;;;;5067194;28;20040;-73
2023/04/28 09:22:55;;;;;;;15.93;14.27;;;10.10;99.90;;;;;;5037355;28;20052;-73
2023/04/28 09:25:22;;;;;;;16.13;14.48;;;10.10;99.90;;;;;;5044985;28;20086;-72
2023/04/28 09:27:49;;;;;;;15.60;14.00;;;10.20;99.90;;;;;;5058297;28;20051;-73
2023/04/28 09:30:15;;;;;;;16.42;14.57;;;10.30;99.90;;;;;;5043725;28;20049;-73
2023/04/28 09:32:41;;;;;;;16.20;14.32;;;10.30;99.90;;;;;;5072708;28;20051;-73
2023/04/28 09:35:07;;;;;;;16.42;14.63;;;10.30;99.90;;;;;;5058425;28;20043;-74
2023/04/28 09:37:34;;;;;;;16.05;14.45;;;10.40;99.90;;;;;;5073219;28;20036;-73
2023/04/28 09:40:08;;;;;;;16.02;14.32;;;10.50;99.90;;;;;;5066767;28;20052;-74
2023/04/28 09:42:52;;;;;;;16.35;14.65;;;10.50;99.90;;;;;;5051519;28;20040;-73
2023/04/28 09:45:18;;;;;;;15.88;13.90;;;10.60;99.90;;;;;;5046323;28;20923;-73
2023/04/28 09:47:45;;;;;;;17.20;15.30;;;10.80;99.90;;;;;;5072580;28;20139;-74
2023/04/28 09:50:13;;;;;;;17.02;15.48;;;11.10;99.90;;;;;;5042042;28;20077;-74
2023/04/28 09:52:44;;;;;;;17.75;15.32;;;11.30;99.90;;;;;;5054907;28;20755;-74
2023/04/28 09:55:11;;;;;;;17.52;14.57;;;11.60;99.90;;;;;;5057662;28;20039;-74
2023/04/28 09:57:38;;;;;;;13.68;12.38;;;11.90;99.90;;;;;;5068050;28;20131;-74
2023/04/28 10:00:07;;;;;;;14.27;12.35;;;12.30;99.90;;;;;;5048605;28;20040;-75
2023/04/28 10:02:35;;;;;;;14.57;13.07;;;12.50;99.90;;;;;;5065659;28;20565;-74
2023/04/28 10:05:02;;;;;;;14.85;13.38;;;12.50;99.90;;;;;;5069480;28;20352;-75
2023/04/28 10:07:29;;;;;;;14.43;12.95;;;12.60;99.90;;;;;;5033881;28;20052;-75
2023/04/28 10:09:55;;;;;;;12.90;11.63;;;12.90;99.90;;;;;;5050819;28;20047;-75
2023/04/28 10:12:24;;;;;;;15.00;12.98;;;13.00;99.90;;;;;;5053644;28;20515;-74
2023/04/28 10:14:54;;;;;;;13.57;12.23;;;13.00;99.90;;;;;;5048071;28;20056;-74
2023/04/28 10:17:21;;;;;;;13.50;12.10;;;12.90;99.90;;;;;;5067456;28;20047;-75
2023/04/28 10:19:52;;;;;;;14.82;13.20;;;12.90;99.90;;;;;;5068756;28;20046;-74
2023/04/28 10:22:32;;;;;;;13.68;12.27;;;12.90;99.90;;;;;;5063435;28;20128;-75
2023/04/28 10:25:14;;;;;;;13.90;12.45;;;12.90;99.90;;;;;;5056167;28;20411;-74
2023/04/28 10:27:45;;;;;;;14.02;12.73;;;12.90;99.90;;;;;;5083362;28;20090;-74
2023/04/28 10:30:16;;;;;;;15.02;12.63;;;12.80;99.90;;;;;;5063092;28;20094;-74
2023/04/28 10:32:42;;;;;;;14.10;12.60;;;12.80;99.90;;;;;;5061586;28;20054;-74
2023/04/28 10:35:20;;;;;;;13.30;11.90;;;12.80;99.90;;;;;;5082889;28;20048;-74
2023/04/28 10:38:07;;;;;;;15.10;13.50;;;12.80;99.90;;;;;;5075893;28;20048;-74
2023/04/28 10:40:34;;;;;;;13.50;12.10;;;12.70;99.90;;;;;;5081281;28;20313;-75
2023/04/28 10:43:00;;;;;;;18.42;12.85;;;12.70;99.90;;;;;;5049034;28;20055;-73
2023/04/28 10:45:48;;;;;;;13.40;11.73;;;12.70;99.90;;;;;;5081536;28;20050;-75
2023/04/28 10:48:22;;;;;;;17.52;12.40;;;12.80;99.90;;;;;;5073845;28;20052;-74
2023/04/28 10:51:06;;;;;;;14.27;12.80;;;12.80;99.90;;;;;;5064882;28;20051;-75
2023/04/28 10:53:42;;;;;;;13.43;12.02;;;12.90;99.90;;;;;;5054142;28;20044;-74
2023/04/28 10:56:08;;;;;;;13.43;12.02;;;13.10;99.90;;;;;;5075262;28;20064;-74
2023/04/28 10:58:36;;;;;;;13.30;11.55;;;13.30;99.90;;;;;;5060880;28;20040;-73
2023/04/28 11:01:20;;;;;;;13.40;12.02;;;13.40;99.90;;;;;;5040979;28;20044;-74
2023/04/28 11:03:52;;;;;;;13.80;12.20;;;13.60;99.90;;;;;;5068178;28;20045;-75
2023/04/28 11:06:33;;;;;;;13.45;12.18;;;13.70;99.90;;;;;;5077889;28;20660;-75
2023/04/28 11:09:31;;;;;;;13.55;11.57;;;13.80;99.90;;;;;;5064346;28;20044;-74
2023/04/28 11:12:00;;;;;;;13.88;12.25;;;13.90;99.90;;;;;;5056573;28;20051;-74
2023/04/28 11:14:28;;;;;;;12.55;11.32;;;13.90;99.90;;;;;;5054469;28;20040;-74
2023/04/28 11:17:04;;;;;;;13.43;12.02;;;14.00;99.90;;;;;;5074666;28;20537;-75
2023/04/28 11:19:37;;;;;;;12.98;11.15;;;13.90;99.90;;;;;;5058567;28;20034;-75
2023/04/28 11:22:14;;;;;;;13.10;11.80;;;13.90;99.90;;;;;;5064046;28;20032;-75
2023/04/28 11:24:41;;;;;;;13.80;12.40;;;13.90;99.90;;;;;;5078201;28;20044;-76
2023/04/28 11:27:07;;;;;;;13.48;11.90;;;13.80;99.90;;;;;;5053857;28;20040;-75
2023/04/28 11:29:35;;;;;;;14.38;12.30;;;13.80;99.90;;;;;;5042122;28;20590;-75
2023/04/28 11:32:05;;;;;;;13.48;12.02;;;13.80;99.90;;;;;;5066277;28;20435;-75
2023/04/28 11:34:31;;;;;;;15.80;11.82;;;13.80;99.90;;;;;;5063236;28;20526;-76
2023/04/28 11:36:57;;;;;;;13.85;12.45;;;13.80;99.90;;;;;;5083573;28;20051;-76
2023/04/28 11:39:31;;;;;;;14.27;12.73;;;13.80;99.90;;;;;;5052274;28;20075;-76
2023/04/28 11:41:59;;;;;;;14.65;13.15;;;13.70;99.90;;;;;;5086298;28;20044;-75
2023/04/28 11:44:27;;;;;;;14.70;13.00;;;13.70;99.90;;;;;;5060687;28;20040;-74
2023/04/28 11:47:01;;;;;;;14.05;12.57;;;13.60;99.90;;;;;;5058440;28;20067;-76
2023/04/28 11:49:32;;;;;;;14.48;12.85;;;13.70;99.90;;;;;;5075863;28;20052;-75
2023/04/28 11:52:06;;;;;;;14.52;13.13;;;13.70;99.90;;;;;;5063877;28;20051;-76
2023/04/28 11:54:32;;;;;;;14.15;12.77;;;13.70;99.90;;;;;;5083346;28;20114;-76
2023/04/28 11:56:59;;;;;;;14.30;12.90;;;13.70;99.90;;;;;;5081896;28;20115;-76
2023/04/28 11:59:33;;;;;;;14.95;13.45;;;13.70;99.90;;;;;;5051033;28;20067;-75
2023/04/28 12:02:01;;;;;;;15.43;13.27;;;13.80;99.90;;;;;;5065525;28;20072;-75
2023/04/28 12:04:35;;;;;;;14.68;13.10;;;13.80;99.90;;;;;;5082514;28;20569;-75
2023/04/28 12:07:12;;;;;;;14.63;13.13;;;13.80;99.90;;;;;;5067742;28;20550;-76
2023/04/28 12:09:38;;;;;;;15.55;13.75;;;13.70;99.90;;;;;;5062314;28;20506;-76
2023/04/28 12:12:06;;;;;;;14.27;12.82;;;13.70;99.90;;;;;;5064503;28;20055;-76
2023/04/28 12:14:52;;;;;;;15.43;11.77;;;13.70;99.90;;;;;;5061535;28;20036;-76
2023/04/28 12:17:29;;;;;;;13.90;12.27;;;13.70;99.90;;;;;;5069313;28;20395;-77
2023/04/28 12:19:56;;;;;;;13.07;11.05;;;13.80;99.90;;;;;;5038479;28;20052;-76
2023/04/28 12:22:23;;;;;;;13.65;12.40;;;13.80;99.90;;;;;;5056139;28;20048;-75
2023/04/28 12:25:06;;;;;;;14.25;12.80;;;13.80;99.90;;;;;;5072117;28;20048;-75
2023/04/28 12:27:33;;;;;;;14.95;12.55;;;13.80;99.90;;;;;;5067280;28;20054;-75
2023/04/28 12:29:59;;;;;;;14.40;12.95;;;13.80;99.90;;;;;;5056862;28;20047;-73
2023/04/28 12:32:39;;;;;;;16.15;14.40;;;13.80;99.90;;;;;;5057692;28;20035;-73
2023/04/28 12:35:05;;;;;;;15.40;13.98;;;13.80;99.90;;;;;;5059693;28;20078;-73